sensor_id;sensor_type;location;lat;lon;timestamp;P1;durP1;ratioP1;P2;durP2;ratioP2
4208;SDS011;36320;48.860;2.380;2022-10-04T00:04:18;9.03;;;2.40;;
4208;SDS011;36320;48.860;2.380;2022-10-04T00:06:54;11.20;;;2.10;;
4208;SDS011;36320;48.860;2.380;2022-10-04T00:09:22;11.90;;;2.50;;
4208;SDS011;36320;48.860;2.380;2022-10-04T00:11:49;18.98;;;2.70;;
4208;SDS011;36320;48.860;2.380;2022-10-04T00:16:48;11.50;;;2.33;;
4208;SDS011;36320;48.860;2.380;2022-10-04T00:29:38;12.35;;;2.83;;
4208;SDS011;36320;48.860;2.380;2022-10-04T00:37:02;10.85;;;2.65;;
4208;SDS011;36320;48.860;2.380;2022-10-04T00:42:02;11.32;;;2.70;;
4208;SDS011;36320;48.860;2.380;2022-10-04T00:44:35;13.50;;;2.80;;
4208;SDS011;36320;48.860;2.380;2022-10-04T00:47:03;13.85;;;3.20;;
4208;SDS011;36320;48.860;2.380;2022-10-04T00:49:38;10.52;;;2.63;;
4208;SDS011;36320;48.860;2.380;2022-10-04T00:52:06;9.38;;;2.90;;
4208;SDS011;36320;48.860;2.380;2022-10-04T00:54:37;10.30;;;2.13;;
4208;SDS011;36320;48.860;2.380;2022-10-04T00:57:15;10.60;;;2.65;;
4208;SDS011;36320;48.860;2.380;2022-10-04T00:59:46;13.35;;;2.05;;
4208;SDS011;36320;48.860;2.380;2022-10-04T01:04:47;11.63;;;2.53;;
4208;SDS011;36320;48.860;2.380;2022-10-04T01:07:17;19.55;;;2.88;;
4208;SDS011;36320;48.860;2.380;2022-10-04T01:09:51;8.57;;;2.38;;
4208;SDS011;36320;48.860;2.380;2022-10-04T01:12:24;10.40;;;2.22;;
4208;SDS011;36320;48.860;2.380;2022-10-04T01:17:18;10.20;;;2.55;;
4208;SDS011;36320;48.860;2.380;2022-10-04T01:19:51;9.40;;;2.20;;
4208;SDS011;36320;48.860;2.380;2022-10-04T01:25:03;12.13;;;2.80;;
4208;SDS011;36320;48.860;2.380;2022-10-04T01:27:30;9.10;;;2.40;;
4208;SDS011;36320;48.860;2.380;2022-10-04T01:29:57;8.23;;;2.25;;
4208;SDS011;36320;48.860;2.380;2022-10-04T01:32:23;15.85;;;2.88;;
4208;SDS011;36320;48.860;2.380;2022-10-04T01:34:49;9.63;;;2.47;;
4208;SDS011;36320;48.860;2.380;2022-10-04T01:37:15;9.13;;;2.20;;
4208;SDS011;36320;48.860;2.380;2022-10-04T01:39:41;8.77;;;2.42;;
4208;SDS011;36320;48.860;2.380;2022-10-04T01:42:10;12.82;;;3.17;;
4208;SDS011;36320;48.860;2.380;2022-10-04T01:47:08;18.27;;;2.80;;
4208;SDS011;36320;48.860;2.380;2022-10-04T01:49:38;9.43;;;2.10;;
4208;SDS011;36320;48.860;2.380;2022-10-04T01:52:06;9.30;;;2.80;;
4208;SDS011;36320;48.860;2.380;2022-10-04T01:54:35;10.63;;;2.65;;
4208;SDS011;36320;48.860;2.380;2022-10-04T01:57:10;9.43;;;2.30;;
4208;SDS011;36320;48.860;2.380;2022-10-04T01:59:39;11.23;;;2.80;;
4208;SDS011;36320;48.860;2.380;2022-10-04T02:02:16;11.55;;;2.42;;
4208;SDS011;36320;48.860;2.380;2022-10-04T02:04:43;9.93;;;2.60;;
4208;SDS011;36320;48.860;2.380;2022-10-04T02:07:12;9.98;;;2.25;;
4208;SDS011;36320;48.860;2.380;2022-10-04T02:09:40;11.13;;;2.58;;
4208;SDS011;36320;48.860;2.380;2022-10-04T02:12:08;9.30;;;2.28;;
4208;SDS011;36320;48.860;2.380;2022-10-04T02:14:34;12.13;;;2.53;;
4208;SDS011;36320;48.860;2.380;2022-10-04T02:17:02;10.18;;;2.65;;
4208;SDS011;36320;48.860;2.380;2022-10-04T02:19:33;7.97;;;2.08;;
4208;SDS011;36320;48.860;2.380;2022-10-04T02:22:03;10.20;;;2.60;;
4208;SDS011;36320;48.860;2.380;2022-10-04T02:24:31;13.70;;;2.60;;
4208;SDS011;36320;48.860;2.380;2022-10-04T02:26:58;8.82;;;2.35;;
4208;SDS011;36320;48.860;2.380;2022-10-04T02:29:24;10.13;;;2.60;;
4208;SDS011;36320;48.860;2.380;2022-10-04T02:31:51;8.50;;;2.20;;
4208;SDS011;36320;48.860;2.380;2022-10-04T02:34:36;16.47;;;2.30;;
4208;SDS011;36320;48.860;2.380;2022-10-04T02:37:03;11.63;;;2.60;;
4208;SDS011;36320;48.860;2.380;2022-10-04T02:39:31;8.60;;;2.30;;
4208;SDS011;36320;48.860;2.380;2022-10-04T02:44:51;9.47;;;2.13;;
4208;SDS011;36320;48.860;2.380;2022-10-04T02:48:03;8.65;;;2.10;;
4208;SDS011;36320;48.860;2.380;2022-10-04T02:50:29;9.20;;;2.40;;
4208;SDS011;36320;48.860;2.380;2022-10-04T02:53:00;9.48;;;2.20;;
4208;SDS011;36320;48.860;2.380;2022-10-04T02:55:34;7.70;;;2.00;;
4208;SDS011;36320;48.860;2.380;2022-10-04T02:58:00;8.67;;;2.40;;
4208;SDS011;36320;48.860;2.380;2022-10-04T03:00:27;13.25;;;2.28;;
4208;SDS011;36320;48.860;2.380;2022-10-04T03:05:40;11.13;;;2.60;;
4208;SDS011;36320;48.860;2.380;2022-10-04T03:08:06;8.80;;;2.03;;
4208;SDS011;36320;48.860;2.380;2022-10-04T03:10:33;8.60;;;2.10;;
4208;SDS011;36320;48.860;2.380;2022-10-04T03:13:00;7.50;;;1.80;;
4208;SDS011;36320;48.860;2.380;2022-10-04T03:15:26;15.93;;;3.00;;
4208;SDS011;36320;48.860;2.380;2022-10-04T03:17:53;10.82;;;2.90;;
4208;SDS011;36320;48.860;2.380;2022-10-04T03:20:19;9.00;;;2.25;;
4208;SDS011;36320;48.860;2.380;2022-10-04T03:22:47;9.65;;;2.47;;
4208;SDS011;36320;48.860;2.380;2022-10-04T03:25:16;7.90;;;2.00;;
4208;SDS011;36320;48.860;2.380;2022-10-04T03:27:43;8.03;;;2.23;;
4208;SDS011;36320;48.860;2.380;2022-10-04T03:30:12;7.63;;;1.70;;
4208;SDS011;36320;48.860;2.380;2022-10-04T03:32:38;10.63;;;2.60;;
4208;SDS011;36320;48.860;2.380;2022-10-04T03:35:05;7.25;;;1.70;;
4208;SDS011;36320;48.860;2.380;2022-10-04T03:37:33;9.05;;;2.10;;
4208;SDS011;36320;48.860;2.380;2022-10-04T03:40:00;11.15;;;2.20;;
4208;SDS011;36320;48.860;2.380;2022-10-04T03:42:30;9.93;;;1.87;;
4208;SDS011;36320;48.860;2.380;2022-10-04T03:45:02;10.40;;;2.30;;
4208;SDS011;36320;48.860;2.380;2022-10-04T03:47:34;9.10;;;2.10;;
4208;SDS011;36320;48.860;2.380;2022-10-04T03:50:06;8.23;;;1.75;;
4208;SDS011;36320;48.860;2.380;2022-10-04T03:52:36;9.32;;;2.20;;
4208;SDS011;36320;48.860;2.380;2022-10-04T03:55:04;11.05;;;2.47;;
4208;SDS011;36320;48.860;2.380;2022-10-04T03:57:31;8.68;;;2.33;;
4208;SDS011;36320;48.860;2.380;2022-10-04T03:59:57;7.90;;;1.80;;
4208;SDS011;36320;48.860;2.380;2022-10-04T04:07:29;9.05;;;2.00;;
4208;SDS011;36320;48.860;2.380;2022-10-04T04:10:01;9.13;;;1.60;;
4208;SDS011;36320;48.860;2.380;2022-10-04T04:12:34;9.65;;;2.20;;
4208;SDS011;36320;48.860;2.380;2022-10-04T04:15:03;14.13;;;2.53;;
4208;SDS011;36320;48.860;2.380;2022-10-04T04:17:36;7.90;;;1.60;;
4208;SDS011;36320;48.860;2.380;2022-10-04T04:20:12;8.20;;;2.40;;
4208;SDS011;36320;48.860;2.380;2022-10-04T04:22:40;10.45;;;2.30;;
4208;SDS011;36320;48.860;2.380;2022-10-04T04:25:10;13.10;;;1.98;;
4208;SDS011;36320;48.860;2.380;2022-10-04T04:27:38;7.97;;;2.03;;
4208;SDS011;36320;48.860;2.380;2022-10-04T04:30:06;8.48;;;2.10;;
4208;SDS011;36320;48.860;2.380;2022-10-04T04:32:35;8.77;;;1.83;;
4208;SDS011;36320;48.860;2.380;2022-10-04T04:35:04;9.02;;;2.22;;
4208;SDS011;36320;48.860;2.380;2022-10-04T04:37:33;10.43;;;2.00;;
4208;SDS011;36320;48.860;2.380;2022-10-04T04:40:10;10.90;;;2.50;;
4208;SDS011;36320;48.860;2.380;2022-10-04T04:42:36;8.50;;;1.60;;
4208;SDS011;36320;48.860;2.380;2022-10-04T04:45:04;10.00;;;2.25;;
4208;SDS011;36320;48.860;2.380;2022-10-04T04:47:35;10.70;;;2.70;;
4208;SDS011;36320;48.860;2.380;2022-10-04T04:50:06;8.05;;;2.15;;
4208;SDS011;36320;48.860;2.380;2022-10-04T04:52:32;10.43;;;2.40;;
4208;SDS011;36320;48.860;2.380;2022-10-04T04:54:59;8.30;;;2.30;;
4208;SDS011;36320;48.860;2.380;2022-10-04T04:57:25;9.00;;;1.80;;
4208;SDS011;36320;48.860;2.380;2022-10-04T04:59:52;9.18;;;2.03;;
4208;SDS011;36320;48.860;2.380;2022-10-04T05:02:54;9.93;;;2.55;;
4208;SDS011;36320;48.860;2.380;2022-10-04T05:07:41;9.57;;;2.50;;
4208;SDS011;36320;48.860;2.380;2022-10-04T05:12:51;12.07;;;2.28;;
4208;SDS011;36320;48.860;2.380;2022-10-04T05:15:18;12.18;;;3.20;;
4208;SDS011;36320;48.860;2.380;2022-10-04T05:17:44;8.80;;;2.17;;
4208;SDS011;36320;48.860;2.380;2022-10-04T05:20:10;8.70;;;2.28;;
4208;SDS011;36320;48.860;2.380;2022-10-04T05:22:37;7.43;;;1.88;;
4208;SDS011;36320;48.860;2.380;2022-10-04T05:25:09;9.00;;;2.30;;
4208;SDS011;36320;48.860;2.380;2022-10-04T05:27:40;13.10;;;2.30;;
4208;SDS011;36320;48.860;2.380;2022-10-04T05:35:16;10.13;;;2.40;;
4208;SDS011;36320;48.860;2.380;2022-10-04T05:38:00;10.57;;;3.00;;
4208;SDS011;36320;48.860;2.380;2022-10-04T05:40:30;9.20;;;2.60;;
4208;SDS011;36320;48.860;2.380;2022-10-04T05:42:58;11.55;;;2.58;;
4208;SDS011;36320;48.860;2.380;2022-10-04T05:45:28;12.77;;;2.53;;
4208;SDS011;36320;48.860;2.380;2022-10-04T05:47:55;8.20;;;2.30;;
4208;SDS011;36320;48.860;2.380;2022-10-04T05:53:05;10.90;;;2.70;;
4208;SDS011;36320;48.860;2.380;2022-10-04T05:55:35;9.23;;;2.28;;
4208;SDS011;36320;48.860;2.380;2022-10-04T06:03:28;10.85;;;2.60;;
4208;SDS011;36320;48.860;2.380;2022-10-04T06:05:59;8.40;;;2.20;;
4208;SDS011;36320;48.860;2.380;2022-10-04T06:08:39;10.35;;;2.38;;
4208;SDS011;36320;48.860;2.380;2022-10-04T06:11:11;9.23;;;2.47;;
4208;SDS011;36320;48.860;2.380;2022-10-04T06:16:20;8.02;;;2.20;;
4208;SDS011;36320;48.860;2.380;2022-10-04T06:19:11;10.52;;;2.78;;
4208;SDS011;36320;48.860;2.380;2022-10-04T06:24:13;10.75;;;2.20;;
4208;SDS011;36320;48.860;2.380;2022-10-04T06:29:09;7.90;;;1.85;;
4208;SDS011;36320;48.860;2.380;2022-10-04T06:31:43;11.75;;;2.60;;
4208;SDS011;36320;48.860;2.380;2022-10-04T06:42:40;13.50;;;2.10;;
4208;SDS011;36320;48.860;2.380;2022-10-04T06:45:21;11.35;;;2.55;;
4208;SDS011;36320;48.860;2.380;2022-10-04T06:53:12;10.93;;;2.85;;
4208;SDS011;36320;48.860;2.380;2022-10-04T06:58:41;14.95;;;5.20;;
4208;SDS011;36320;48.860;2.380;2022-10-04T07:01:33;20.30;;;6.32;;
4208;SDS011;36320;48.860;2.380;2022-10-04T07:09:43;25.95;;;6.30;;
4208;SDS011;36320;48.860;2.380;2022-10-04T07:12:11;23.05;;;7.75;;
4208;SDS011;36320;48.860;2.380;2022-10-04T07:14:45;18.17;;;6.38;;
4208;SDS011;36320;48.860;2.380;2022-10-04T07:17:26;21.88;;;6.30;;
4208;SDS011;36320;48.860;2.380;2022-10-04T07:19:56;19.40;;;6.70;;
4208;SDS011;36320;48.860;2.380;2022-10-04T07:30:03;23.73;;;8.40;;
4208;SDS011;36320;48.860;2.380;2022-10-04T07:32:34;17.60;;;6.22;;
4208;SDS011;36320;48.860;2.380;2022-10-04T07:37:34;21.52;;;7.80;;
4208;SDS011;36320;48.860;2.380;2022-10-04T07:45:33;23.17;;;6.57;;
4208;SDS011;36320;48.860;2.380;2022-10-04T07:48:04;20.67;;;6.93;;
4208;SDS011;36320;48.860;2.380;2022-10-04T07:53:52;19.77;;;7.15;;
4208;SDS011;36320;48.860;2.380;2022-10-04T07:56:23;22.10;;;7.22;;
4208;SDS011;36320;48.860;2.380;2022-10-04T08:01:42;27.30;;;7.70;;
4208;SDS011;36320;48.860;2.380;2022-10-04T08:15:36;20.87;;;7.10;;
4208;SDS011;36320;48.860;2.380;2022-10-04T08:21:00;20.88;;;6.85;;
4208;SDS011;36320;48.860;2.380;2022-10-04T08:23:39;26.90;;;8.30;;
4208;SDS011;36320;48.860;2.380;2022-10-04T08:26:11;21.42;;;7.22;;
4208;SDS011;36320;48.860;2.380;2022-10-04T08:28:44;25.95;;;7.95;;
4208;SDS011;36320;48.860;2.380;2022-10-04T08:38:12;22.67;;;8.07;;
4208;SDS011;36320;48.860;2.380;2022-10-04T08:43:53;27.83;;;8.35;;
4208;SDS011;36320;48.860;2.380;2022-10-04T08:55:39;29.05;;;9.18;;
4208;SDS011;36320;48.860;2.380;2022-10-04T09:06:42;26.52;;;11.15;;
4208;SDS011;36320;48.860;2.380;2022-10-04T09:18:18;27.95;;;9.07;;
4208;SDS011;36320;48.860;2.380;2022-10-04T09:21:05;27.48;;;9.35;;
4208;SDS011;36320;48.860;2.380;2022-10-04T09:29:09;23.30;;;9.10;;
4208;SDS011;36320;48.860;2.380;2022-10-04T09:43:57;33.60;;;10.50;;
4208;SDS011;36320;48.860;2.380;2022-10-04T10:03:52;26.02;;;9.90;;
4208;SDS011;36320;48.860;2.380;2022-10-04T10:09:51;34.10;;;11.38;;
4208;SDS011;36320;48.860;2.380;2022-10-04T11:03:53;20.48;;;7.75;;
4208;SDS011;36320;48.860;2.380;2022-10-04T11:09:38;20.88;;;7.30;;
4208;SDS011;36320;48.860;2.380;2022-10-04T11:40:23;19.53;;;7.30;;
4208;SDS011;36320;48.860;2.380;2022-10-04T11:45:53;23.50;;;8.00;;
4208;SDS011;36320;48.860;2.380;2022-10-04T11:48:32;15.82;;;6.43;;
4208;SDS011;36320;48.860;2.380;2022-10-04T11:51:20;16.85;;;5.57;;
4208;SDS011;36320;48.860;2.380;2022-10-04T12:03:38;15.52;;;5.38;;
4208;SDS011;36320;48.860;2.380;2022-10-04T12:17:55;15.15;;;5.13;;
4208;SDS011;36320;48.860;2.380;2022-10-04T12:34:27;12.90;;;4.20;;
4208;SDS011;36320;48.860;2.380;2022-10-04T12:37:20;16.95;;;4.90;;
4208;SDS011;36320;48.860;2.380;2022-10-04T12:48:14;15.43;;;4.05;;
4208;SDS011;36320;48.860;2.380;2022-10-04T12:51:09;16.17;;;4.90;;
4208;SDS011;36320;48.860;2.380;2022-10-04T12:54:01;17.85;;;4.47;;
4208;SDS011;36320;48.860;2.380;2022-10-04T13:11:23;10.23;;;3.40;;
4208;SDS011;36320;48.860;2.380;2022-10-04T13:20:30;10.93;;;3.40;;
4208;SDS011;36320;48.860;2.380;2022-10-04T13:28:43;12.15;;;3.60;;
4208;SDS011;36320;48.860;2.380;2022-10-04T13:31:23;14.43;;;3.50;;
4208;SDS011;36320;48.860;2.380;2022-10-04T13:34:04;10.82;;;2.80;;
4208;SDS011;36320;48.860;2.380;2022-10-04T13:48:48;11.23;;;3.22;;
4208;SDS011;36320;48.860;2.380;2022-10-04T13:51:32;11.50;;;2.60;;
4208;SDS011;36320;48.860;2.380;2022-10-04T14:00:17;9.88;;;2.65;;
4208;SDS011;36320;48.860;2.380;2022-10-04T14:58:57;10.27;;;3.13;;
4208;SDS011;36320;48.860;2.380;2022-10-04T15:01:27;10.63;;;2.78;;
4208;SDS011;36320;48.860;2.380;2022-10-04T15:07:02;12.73;;;3.10;;
4208;SDS011;36320;48.860;2.380;2022-10-04T15:20:29;10.63;;;3.07;;
4208;SDS011;36320;48.860;2.380;2022-10-04T15:23:13;9.48;;;2.40;;
4208;SDS011;36320;48.860;2.380;2022-10-04T15:25:46;9.73;;;2.80;;
4208;SDS011;36320;48.860;2.380;2022-10-04T15:45:01;10.63;;;2.97;;
4208;SDS011;36320;48.860;2.380;2022-10-04T15:50:21;8.50;;;2.30;;
4208;SDS011;36320;48.860;2.380;2022-10-04T15:56:17;8.43;;;2.50;;
4208;SDS011;36320;48.860;2.380;2022-10-04T15:59:06;15.80;;;2.50;;
4208;SDS011;36320;48.860;2.380;2022-10-04T16:12:55;10.25;;;2.35;;
4208;SDS011;36320;48.860;2.380;2022-10-04T16:15:33;12.68;;;3.10;;
4208;SDS011;36320;48.860;2.380;2022-10-04T16:20:57;8.80;;;2.40;;
4208;SDS011;36320;48.860;2.380;2022-10-04T16:23:40;10.93;;;2.45;;
4208;SDS011;36320;48.860;2.380;2022-10-04T16:27:02;8.63;;;2.47;;
4208;SDS011;36320;48.860;2.380;2022-10-04T16:29:15;11.27;;;2.80;;
4208;SDS011;36320;48.860;2.380;2022-10-04T16:32:11;9.10;;;2.50;;
4208;SDS011;36320;48.860;2.380;2022-10-04T16:34:45;12.80;;;2.60;;
4208;SDS011;36320;48.860;2.380;2022-10-04T16:37:32;9.38;;;2.83;;
4208;SDS011;36320;48.860;2.380;2022-10-04T16:42:58;10.90;;;2.80;;
4208;SDS011;36320;48.860;2.380;2022-10-04T16:45:36;9.30;;;2.60;;
4208;SDS011;36320;48.860;2.380;2022-10-04T17:08:14;12.10;;;3.20;;
4208;SDS011;36320;48.860;2.380;2022-10-04T17:13:33;9.85;;;2.50;;
4208;SDS011;36320;48.860;2.380;2022-10-04T17:27:12;9.20;;;2.50;;
4208;SDS011;36320;48.860;2.380;2022-10-04T17:32:34;9.38;;;2.38;;
4208;SDS011;36320;48.860;2.380;2022-10-04T17:38:16;12.00;;;3.57;;
4208;SDS011;36320;48.860;2.380;2022-10-04T17:49:37;15.23;;;3.53;;
4208;SDS011;36320;48.860;2.380;2022-10-04T17:52:49;11.20;;;2.97;;
4208;SDS011;36320;48.860;2.380;2022-10-04T17:55:47;10.05;;;3.08;;
4208;SDS011;36320;48.860;2.380;2022-10-04T17:58:21;12.48;;;2.78;;
4208;SDS011;36320;48.860;2.380;2022-10-04T18:00:57;13.82;;;3.53;;
4208;SDS011;36320;48.860;2.380;2022-10-04T18:03:50;11.18;;;2.90;;
4208;SDS011;36320;48.860;2.380;2022-10-04T18:09:00;15.30;;;3.33;;
4208;SDS011;36320;48.860;2.380;2022-10-04T18:11:50;12.55;;;3.58;;
4208;SDS011;36320;48.860;2.380;2022-10-04T18:16:59;16.27;;;4.10;;
4208;SDS011;36320;48.860;2.380;2022-10-04T18:22:15;10.88;;;2.83;;
4208;SDS011;36320;48.860;2.380;2022-10-04T18:24:42;13.10;;;2.95;;
4208;SDS011;36320;48.860;2.380;2022-10-04T18:27:28;10.70;;;2.95;;
4208;SDS011;36320;48.860;2.380;2022-10-04T18:30:06;12.60;;;3.40;;
4208;SDS011;36320;48.860;2.380;2022-10-04T18:32:43;11.73;;;3.40;;
4208;SDS011;36320;48.860;2.380;2022-10-04T18:35:27;12.95;;;3.60;;
4208;SDS011;36320;48.860;2.380;2022-10-04T18:40:32;12.70;;;4.10;;
4208;SDS011;36320;48.860;2.380;2022-10-04T18:43:48;13.02;;;3.63;;
4208;SDS011;36320;48.860;2.380;2022-10-04T18:51:25;12.30;;;3.03;;
4208;SDS011;36320;48.860;2.380;2022-10-04T18:56:34;11.35;;;2.90;;
4208;SDS011;36320;48.860;2.380;2022-10-04T19:02:18;12.57;;;2.33;;
4208;SDS011;36320;48.860;2.380;2022-10-04T19:15:24;8.68;;;1.70;;
4208;SDS011;36320;48.860;2.380;2022-10-04T19:17:58;10.35;;;1.98;;
4208;SDS011;36320;48.860;2.380;2022-10-04T19:20:35;8.48;;;1.88;;
4208;SDS011;36320;48.860;2.380;2022-10-04T19:25:35;8.40;;;2.10;;
4208;SDS011;36320;48.860;2.380;2022-10-04T19:28:19;7.82;;;1.73;;
4208;SDS011;36320;48.860;2.380;2022-10-04T19:33:16;7.60;;;2.10;;
4208;SDS011;36320;48.860;2.380;2022-10-04T19:35:47;7.63;;;1.95;;
4208;SDS011;36320;48.860;2.380;2022-10-04T19:40:56;10.25;;;2.63;;
4208;SDS011;36320;48.860;2.380;2022-10-04T19:43:31;7.17;;;1.40;;
4208;SDS011;36320;48.860;2.380;2022-10-04T19:48:47;9.02;;;1.60;;
4208;SDS011;36320;48.860;2.380;2022-10-04T19:53:43;7.38;;;1.55;;
4208;SDS011;36320;48.860;2.380;2022-10-04T19:56:19;8.38;;;1.75;;
4208;SDS011;36320;48.860;2.380;2022-10-04T19:59:22;8.77;;;2.10;;
4208;SDS011;36320;48.860;2.380;2022-10-04T20:01:40;8.90;;;1.85;;
4208;SDS011;36320;48.860;2.380;2022-10-04T20:04:14;8.43;;;1.98;;
4208;SDS011;36320;48.860;2.380;2022-10-04T20:07:00;10.38;;;2.70;;
4208;SDS011;36320;48.860;2.380;2022-10-04T20:11:53;9.38;;;2.05;;
4208;SDS011;36320;48.860;2.380;2022-10-04T20:19:18;7.30;;;1.55;;
4208;SDS011;36320;48.860;2.380;2022-10-04T20:21:46;8.13;;;1.75;;
4208;SDS011;36320;48.860;2.380;2022-10-04T20:24:17;11.82;;;2.90;;
4208;SDS011;36320;48.860;2.380;2022-10-04T20:26:43;12.52;;;2.03;;
4208;SDS011;36320;48.860;2.380;2022-10-04T20:32:02;9.00;;;1.70;;
4208;SDS011;36320;48.860;2.380;2022-10-04T20:37:07;8.77;;;1.88;;
4208;SDS011;36320;48.860;2.380;2022-10-04T20:44:53;9.77;;;2.20;;
4208;SDS011;36320;48.860;2.380;2022-10-04T20:49:48;10.85;;;2.00;;
4208;SDS011;36320;48.860;2.380;2022-10-04T20:52:15;11.82;;;2.00;;
4208;SDS011;36320;48.860;2.380;2022-10-04T20:54:50;8.10;;;1.90;;
4208;SDS011;36320;48.860;2.380;2022-10-04T20:57:17;7.93;;;1.83;;
4208;SDS011;36320;48.860;2.380;2022-10-04T20:59:43;8.43;;;2.20;;
4208;SDS011;36320;48.860;2.380;2022-10-04T21:02:12;9.52;;;2.20;;
4208;SDS011;36320;48.860;2.380;2022-10-04T21:04:39;9.60;;;2.10;;
4208;SDS011;36320;48.860;2.380;2022-10-04T21:07:10;8.23;;;2.10;;
4208;SDS011;36320;48.860;2.380;2022-10-04T21:09:37;8.45;;;2.13;;
4208;SDS011;36320;48.860;2.380;2022-10-04T21:12:04;9.45;;;1.90;;
4208;SDS011;36320;48.860;2.380;2022-10-04T21:14:30;9.27;;;2.00;;
4208;SDS011;36320;48.860;2.380;2022-10-04T21:17:43;12.83;;;2.10;;
4208;SDS011;36320;48.860;2.380;2022-10-04T21:19:43;8.82;;;2.03;;
4208;SDS011;36320;48.860;2.380;2022-10-04T21:22:31;8.30;;;2.30;;
4208;SDS011;36320;48.860;2.380;2022-10-04T21:24:56;8.35;;;1.75;;
4208;SDS011;36320;48.860;2.380;2022-10-04T21:27:27;8.75;;;1.95;;
4208;SDS011;36320;48.860;2.380;2022-10-04T21:29:53;7.53;;;1.92;;
4208;SDS011;36320;48.860;2.380;2022-10-04T21:32:20;7.95;;;1.70;;
4208;SDS011;36320;48.860;2.380;2022-10-04T21:34:46;9.68;;;1.55;;
4208;SDS011;36320;48.860;2.380;2022-10-04T21:37:12;7.18;;;1.60;;
4208;SDS011;36320;48.860;2.380;2022-10-04T21:39:38;7.70;;;1.80;;
4208;SDS011;36320;48.860;2.380;2022-10-04T21:42:04;7.85;;;1.70;;
4208;SDS011;36320;48.860;2.380;2022-10-04T21:44:30;8.48;;;1.70;;
4208;SDS011;36320;48.860;2.380;2022-10-04T21:46:56;7.50;;;1.80;;
4208;SDS011;36320;48.860;2.380;2022-10-04T21:49:22;8.60;;;1.50;;
4208;SDS011;36320;48.860;2.380;2022-10-04T21:51:48;10.52;;;2.70;;
4208;SDS011;36320;48.860;2.380;2022-10-04T21:54:15;8.43;;;1.70;;
4208;SDS011;36320;48.860;2.380;2022-10-04T21:56:41;7.45;;;1.60;;
4208;SDS011;36320;48.860;2.380;2022-10-04T21:59:09;13.70;;;2.17;;
4208;SDS011;36320;48.860;2.380;2022-10-04T22:01:35;9.68;;;2.00;;
4208;SDS011;36320;48.860;2.380;2022-10-04T22:04:01;9.80;;;1.98;;
4208;SDS011;36320;48.860;2.380;2022-10-04T22:06:27;7.70;;;1.85;;
4208;SDS011;36320;48.860;2.380;2022-10-04T22:08:53;9.50;;;2.20;;
4208;SDS011;36320;48.860;2.380;2022-10-04T22:11:19;8.40;;;2.00;;
4208;SDS011;36320;48.860;2.380;2022-10-04T22:13:45;7.80;;;1.73;;
4208;SDS011;36320;48.860;2.380;2022-10-04T22:16:12;7.40;;;1.90;;
4208;SDS011;36320;48.860;2.380;2022-10-04T22:18:38;7.20;;;1.45;;
4208;SDS011;36320;48.860;2.380;2022-10-04T22:21:04;8.85;;;2.08;;
4208;SDS011;36320;48.860;2.380;2022-10-04T22:23:34;10.87;;;1.90;;
4208;SDS011;36320;48.860;2.380;2022-10-04T22:26:10;8.48;;;1.98;;
4208;SDS011;36320;48.860;2.380;2022-10-04T22:28:38;8.15;;;1.75;;
4208;SDS011;36320;48.860;2.380;2022-10-04T22:31:10;7.60;;;1.75;;
4208;SDS011;36320;48.860;2.380;2022-10-04T22:33:37;8.63;;;1.73;;
4208;SDS011;36320;48.860;2.380;2022-10-04T22:36:14;9.37;;;2.00;;
4208;SDS011;36320;48.860;2.380;2022-10-04T22:38:40;8.07;;;1.90;;
4208;SDS011;36320;48.860;2.380;2022-10-04T22:41:13;7.05;;;1.63;;
4208;SDS011;36320;48.860;2.380;2022-10-04T22:43:40;8.60;;;2.00;;
4208;SDS011;36320;48.860;2.380;2022-10-04T22:46:14;10.02;;;2.13;;
4208;SDS011;36320;48.860;2.380;2022-10-04T22:48:40;10.00;;;2.20;;
4208;SDS011;36320;48.860;2.380;2022-10-04T22:51:08;8.38;;;2.10;;
4208;SDS011;36320;48.860;2.380;2022-10-04T22:53:35;9.73;;;1.90;;
4208;SDS011;36320;48.860;2.380;2022-10-04T22:56:01;7.03;;;1.70;;
4208;SDS011;36320;48.860;2.380;2022-10-04T22:58:27;7.15;;;1.50;;
4208;SDS011;36320;48.860;2.380;2022-10-04T23:00:53;8.35;;;2.00;;
4208;SDS011;36320;48.860;2.380;2022-10-04T23:05:48;7.70;;;1.88;;
4208;SDS011;36320;48.860;2.380;2022-10-04T23:08:14;9.10;;;1.50;;
4208;SDS011;36320;48.860;2.380;2022-10-04T23:10:42;10.13;;;1.50;;
4208;SDS011;36320;48.860;2.380;2022-10-04T23:13:08;7.60;;;1.50;;
4208;SDS011;36320;48.860;2.380;2022-10-04T23:15:33;7.00;;;1.50;;
4208;SDS011;36320;48.860;2.380;2022-10-04T23:17:59;7.13;;;1.50;;
4208;SDS011;36320;48.860;2.380;2022-10-04T23:20:26;8.27;;;1.52;;
4208;SDS011;36320;48.860;2.380;2022-10-04T23:22:53;7.32;;;1.50;;
4208;SDS011;36320;48.860;2.380;2022-10-04T23:25:25;8.40;;;1.83;;
4208;SDS011;36320;48.860;2.380;2022-10-04T23:27:51;7.10;;;1.40;;
4208;SDS011;36320;48.860;2.380;2022-10-04T23:30:18;8.23;;;2.15;;
4208;SDS011;36320;48.860;2.380;2022-10-04T23:32:45;7.90;;;1.85;;
4208;SDS011;36320;48.860;2.380;2022-10-04T23:35:19;7.82;;;1.60;;
4208;SDS011;36320;48.860;2.380;2022-10-04T23:37:45;7.05;;;1.63;;
4208;SDS011;36320;48.860;2.380;2022-10-04T23:40:14;8.48;;;1.70;;
4208;SDS011;36320;48.860;2.380;2022-10-04T23:42:40;6.97;;;1.48;;
4208;SDS011;36320;48.860;2.380;2022-10-04T23:45:10;9.88;;;2.03;;
4208;SDS011;36320;48.860;2.380;2022-10-04T23:47:38;8.20;;;1.50;;
4208;SDS011;36320;48.860;2.380;2022-10-04T23:50:16;8.20;;;2.20;;
4208;SDS011;36320;48.860;2.380;2022-10-04T23:52:43;7.93;;;1.83;;
4208;SDS011;36320;48.860;2.380;2022-10-04T23:55:12;7.63;;;1.85;;
4208;SDS011;36320;48.860;2.380;2022-10-04T23:57:40;18.00;;;2.00;;
